createdAt,value
2022-09-15T00:01:13.843Z,16.33
2022-09-15T00:03:43.603Z,16.36
2022-09-15T00:06:14.821Z,16.34
2022-09-15T00:08:44.414Z,16.37
2022-09-15T00:11:18.441Z,16.36
2022-09-15T00:13:48.483Z,16.43
2022-09-15T00:16:21.060Z,16.37
2022-09-15T00:18:50.433Z,16.48
2022-09-15T00:21:25.032Z,16.47
2022-09-15T00:23:54.990Z,16.48
2022-09-15T00:26:27.517Z,16.38
2022-09-15T00:28:57.827Z,16.35
2022-09-15T00:31:32.727Z,16.37
2022-09-15T00:34:04.193Z,16.41
2022-09-15T00:36:33.683Z,16.43
2022-09-15T00:39:02.929Z,16.44
2022-09-15T00:41:32.886Z,16.40
2022-09-15T00:44:04.269Z,16.39
2022-09-15T00:46:38.198Z,16.42
2022-09-15T00:49:15.387Z,16.40
2022-09-15T00:51:54.065Z,16.19
2022-09-15T00:54:28.274Z,16.28
2022-09-15T00:57:01.141Z,16.26
2022-09-15T00:59:35.118Z,16.29
2022-09-15T01:02:13.729Z,16.22
2022-09-15T01:04:43.154Z,16.28
2022-09-15T01:07:18.003Z,16.21
2022-09-15T01:09:54.513Z,16.14
2022-09-15T01:12:25.407Z,16.26
2022-09-15T01:14:54.683Z,16.28
2022-09-15T01:17:39.355Z,16.28
2022-09-15T01:20:55.558Z,16.21
2022-09-15T01:24:35.766Z,16.07
2022-09-15T01:27:41.690Z,16.10
2022-09-15T01:30:16.662Z,16.01
2022-09-15T01:33:22.519Z,15.97
2022-09-15T01:36:00.347Z,16.07
2022-09-15T01:38:55.810Z,16.01
2022-09-15T01:41:31.588Z,16.05
2022-09-15T01:44:07.713Z,16.04
2022-09-15T01:46:47.184Z,15.92
2022-09-15T01:49:21.293Z,15.99
2022-09-15T01:51:54.852Z,15.93
2022-09-15T01:54:30.886Z,15.96
2022-09-15T01:57:00.364Z,15.99
2022-09-15T01:59:29.939Z,16.02
2022-09-15T02:02:05.895Z,15.93
2022-09-15T02:04:41.937Z,15.93
2022-09-15T02:07:17.255Z,15.90
2022-09-15T02:09:52.396Z,15.88
2022-09-15T02:12:33.215Z,15.70
2022-09-15T02:15:08.777Z,15.86
2022-09-15T02:17:47.287Z,15.78
2022-09-15T02:20:23.865Z,15.78
2022-09-15T02:23:02.188Z,15.78
2022-09-15T02:25:36.082Z,15.89
2022-09-15T02:28:11.195Z,15.78
2022-09-15T02:30:44.200Z,15.80
2022-09-15T02:33:20.775Z,15.73
2022-09-15T02:35:51.950Z,15.93
2022-09-15T02:38:21.822Z,15.80
2022-09-15T02:40:51.155Z,15.84
2022-09-15T02:43:20.263Z,15.88
2022-09-15T02:45:49.750Z,15.97
2022-09-15T02:48:20.556Z,15.92
2022-09-15T02:50:49.724Z,15.88
2022-09-15T02:53:18.915Z,15.80
2022-09-15T02:55:47.997Z,15.78
2022-09-15T02:58:17.173Z,15.77
2022-09-15T03:00:46.365Z,15.86
2022-09-15T03:03:15.562Z,15.77
2022-09-15T03:05:46.087Z,15.75
2022-09-15T03:08:15.275Z,15.64
2022-09-15T03:10:44.443Z,15.68
2022-09-15T03:13:13.606Z,15.60
2022-09-15T03:15:43.251Z,15.55
2022-09-15T03:18:13.267Z,15.49
2022-09-15T03:20:42.433Z,15.50
2022-09-15T03:23:13.108Z,15.53
2022-09-15T03:25:42.232Z,15.52
2022-09-15T03:28:11.315Z,15.45
2022-09-15T03:30:40.660Z,15.39
2022-09-15T03:33:09.740Z,15.42
2022-09-15T03:35:39.471Z,15.33
2022-09-15T03:38:08.624Z,15.31
2022-09-15T03:40:39.226Z,15.22
2022-09-15T03:43:08.402Z,15.11
2022-09-15T03:45:38.025Z,14.90
2022-09-15T03:48:08.764Z,14.97
2022-09-15T03:50:37.892Z,15.01
2022-09-15T03:53:07.122Z,14.94
2022-09-15T03:55:36.329Z,14.90
2022-09-15T03:58:06.822Z,14.78
2022-09-15T04:00:36.221Z,14.80
2022-09-15T04:03:06.875Z,14.75
2022-09-15T04:05:36.798Z,14.77
2022-09-15T04:08:06.602Z,14.79
2022-09-15T04:10:39.006Z,14.76
2022-09-15T04:13:09.829Z,14.67
2022-09-15T04:15:38.985Z,14.71
2022-09-15T04:18:08.187Z,14.67
2022-09-15T04:20:40.759Z,14.49
2022-09-15T04:23:09.878Z,14.61
2022-09-15T04:25:39.003Z,14.52
2022-09-15T04:28:09.544Z,14.53
2022-09-15T04:30:38.790Z,14.52
2022-09-15T04:33:08.363Z,14.48
2022-09-15T04:35:37.653Z,14.48
2022-09-15T04:38:06.787Z,14.47
2022-09-15T04:40:35.950Z,14.56
2022-09-15T04:43:06.680Z,14.42
2022-09-15T04:45:37.220Z,14.55
2022-09-15T04:48:06.468Z,14.47
2022-09-15T04:50:35.666Z,14.54
2022-09-15T04:53:04.953Z,14.52
2022-09-15T04:55:34.286Z,14.43
2022-09-15T04:58:04.134Z,14.40
2022-09-15T05:00:43.672Z,14.43
2022-09-15T05:03:14.253Z,14.41
2022-09-15T05:05:43.530Z,14.36
2022-09-15T05:08:12.627Z,14.38
2022-09-15T05:10:41.741Z,14.36
2022-09-15T05:13:10.839Z,14.34
2022-09-15T05:15:41.530Z,14.23
2022-09-15T05:18:10.789Z,14.30
2022-09-15T05:20:40.078Z,14.28
2022-09-15T05:23:09.329Z,14.19
2022-09-15T05:25:38.853Z,14.17
2022-09-15T05:28:08.657Z,14.20
2022-09-15T05:30:44.547Z,14.20
2022-09-15T05:33:13.992Z,13.66
2022-09-15T05:35:52.690Z,14.18
2022-09-15T05:38:22.174Z,14.05
2022-09-15T05:40:51.826Z,14.15
2022-09-15T05:43:21.556Z,14.05
2022-09-15T05:45:57.531Z,14.07
2022-09-15T05:48:27.303Z,14.09
2022-09-15T05:50:58.327Z,13.95
2022-09-15T05:53:28.403Z,14.08
2022-09-15T05:55:58.605Z,14.16
2022-09-15T05:58:28.621Z,14.11
2022-09-15T06:01:05.329Z,14.18
2022-09-15T06:03:35.432Z,14.32
2022-09-15T06:06:06.490Z,14.27
2022-09-15T06:08:40.516Z,14.27
2022-09-15T06:11:16.279Z,14.39
2022-09-15T06:13:46.890Z,14.43
2022-09-15T06:16:20.644Z,14.37
2022-09-15T06:18:52.311Z,14.40
2022-09-15T06:21:24.353Z,14.54
2022-09-15T06:23:56.450Z,14.57
2022-09-15T06:26:26.842Z,14.50
2022-09-15T06:28:58.502Z,14.61
2022-09-15T06:31:32.995Z,14.60
2022-09-15T06:34:04.130Z,14.70
2022-09-15T06:36:34.105Z,14.73
2022-09-15T06:39:03.623Z,14.77
2022-09-15T06:41:58.332Z,14.80
2022-09-15T06:44:22.376Z,14.55
2022-09-15T06:46:52.912Z,14.87
2022-09-15T06:49:22.902Z,14.77
2022-09-15T06:51:52.620Z,14.99
2022-09-15T06:54:22.535Z,14.98
2022-09-15T06:56:53.097Z,15.07
2022-09-15T06:59:24.390Z,15.05
2022-09-15T07:01:56.200Z,15.03
2022-09-15T07:04:25.358Z,15.15
2022-09-15T07:06:54.576Z,15.15
2022-09-15T07:09:23.831Z,15.22
2022-09-15T07:11:52.946Z,15.25
2022-09-15T07:14:22.241Z,15.34
2022-09-15T07:16:51.448Z,15.40
2022-09-15T07:19:21.985Z,15.39
2022-09-15T07:21:52.897Z,15.47
2022-09-15T07:24:22.136Z,15.51
2022-09-15T07:26:52.119Z,15.53
2022-09-15T07:29:21.304Z,15.66
2022-09-15T07:31:50.813Z,15.67
2022-09-15T07:34:21.360Z,15.71
2022-09-15T07:36:50.882Z,15.66
2022-09-15T07:39:20.067Z,15.77
2022-09-15T07:41:49.188Z,15.85
2022-09-15T07:44:18.383Z,15.88
2022-09-15T07:46:47.508Z,15.92
2022-09-15T07:49:17.682Z,16.02
2022-09-15T07:51:48.296Z,15.90
2022-09-15T07:54:21.985Z,15.92
2022-09-15T07:56:52.128Z,15.97
2022-09-15T07:59:21.308Z,16.03
2022-09-15T08:01:51.323Z,15.60
2022-09-15T08:04:20.489Z,16.07
2022-09-15T08:06:52.760Z,16.00
2022-09-15T08:09:22.080Z,16.11
2022-09-15T08:11:51.188Z,16.11
2022-09-15T08:14:20.364Z,16.10
2022-09-15T08:16:49.629Z,16.17
2022-09-15T08:19:19.743Z,16.61
2022-09-15T08:21:50.652Z,17.21
2022-09-15T08:24:19.737Z,17.74
2022-09-15T08:26:48.868Z,18.20
2022-09-15T08:29:18.804Z,18.68
2022-09-15T08:31:48.753Z,18.93
2022-09-15T08:34:19.194Z,19.11
2022-09-15T08:36:48.305Z,18.94
2022-09-15T08:39:18.961Z,18.87
2022-09-15T08:41:51.682Z,18.75
2022-09-15T08:44:33.389Z,18.53
2022-09-15T08:47:11.416Z,18.30
2022-09-15T08:49:57.431Z,18.07
2022-09-15T08:52:34.681Z,17.99
2022-09-15T08:55:14.719Z,17.95
2022-09-15T08:57:45.028Z,18.01
2022-09-15T09:00:18.043Z,17.82
2022-09-15T09:03:14.658Z,17.85
2022-09-15T09:06:00.033Z,17.94
2022-09-15T09:09:13.491Z,18.00
2022-09-15T09:11:58.066Z,17.95
2022-09-15T09:14:40.944Z,18.12
2022-09-15T09:17:25.186Z,18.13
2022-09-15T09:20:33.471Z,18.18
2022-09-15T09:23:08.901Z,18.26
2022-09-15T09:25:38.853Z,18.42
2022-09-15T09:28:25.463Z,18.63
2022-09-15T09:30:56.155Z,18.82
2022-09-15T09:33:32.292Z,18.94
2022-09-15T09:36:02.533Z,19.00
2022-09-15T09:38:39.118Z,19.30
2022-09-15T09:41:14.894Z,19.40
2022-09-15T09:43:47.688Z,19.47
2022-09-15T09:46:20.387Z,19.46
2022-09-15T09:48:56.433Z,19.60
2022-09-15T09:51:35.997Z,19.77
2022-09-15T09:54:28.329Z,19.76
2022-09-15T09:57:19.154Z,19.86
2022-09-15T09:59:51.092Z,19.74
2022-09-15T10:02:22.942Z,19.61
2022-09-15T10:04:54.272Z,19.37
2022-09-15T10:07:27.242Z,19.41
2022-09-15T10:09:59.528Z,19.45
2022-09-15T10:12:33.285Z,19.41
2022-09-15T10:15:08.123Z,19.48
2022-09-15T10:17:44.077Z,19.52
2022-09-15T10:20:28.567Z,19.73
2022-09-15T10:23:07.173Z,19.55
2022-09-15T10:28:29.177Z,19.60
2022-09-15T10:31:05.460Z,19.70
2022-09-15T10:33:36.937Z,19.77
2022-09-15T10:36:13.034Z,19.72
2022-09-15T10:38:46.725Z,19.74
2022-09-15T10:41:29.199Z,19.80
2022-09-15T10:44:31.073Z,19.73
2022-09-15T10:47:14.005Z,19.65
2022-09-15T10:50:01.482Z,19.39
2022-09-15T10:52:43.626Z,19.30
2022-09-15T10:55:51.124Z,19.23
2022-09-15T10:58:41.070Z,19.45
2022-09-15T11:01:41.285Z,19.49
2022-09-15T11:05:10.399Z,19.72
2022-09-15T11:07:49.187Z,19.70
2022-09-15T11:10:26.504Z,19.76
2022-09-15T11:13:05.378Z,19.55
2022-09-15T11:15:56.729Z,19.32
2022-09-15T11:18:54.689Z,19.06
2022-09-15T11:21:31.173Z,18.82
2022-09-15T11:24:32.972Z,18.93
2022-09-15T11:27:12.543Z,18.94
2022-09-15T11:30:02.968Z,19.12
2022-09-15T11:32:42.662Z,19.12
2022-09-15T11:35:40.362Z,19.16
2022-09-15T11:38:29.650Z,19.19
2022-09-15T11:41:16.546Z,19.14
2022-09-15T11:44:00.246Z,19.13
2022-09-15T11:46:46.995Z,19.05
2022-09-15T11:49:21.917Z,18.90
2022-09-15T11:51:58.299Z,19.08
2022-09-15T11:54:38.828Z,19.08
2022-09-15T11:57:16.257Z,19.34
2022-09-15T11:59:53.149Z,19.42
2022-09-15T12:02:40.056Z,19.62
2022-09-15T12:05:15.168Z,19.74
2022-09-15T12:07:51.378Z,19.95
2022-09-15T12:10:27.846Z,20.06
2022-09-15T12:12:57.702Z,20.24
2022-09-15T12:15:28.333Z,20.35
2022-09-15T12:18:37.086Z,20.61
2022-09-15T12:21:13.109Z,20.77
2022-09-15T12:23:46.658Z,20.87
2022-09-15T12:26:21.504Z,20.63
2022-09-15T12:28:57.808Z,20.48
2022-09-15T12:31:36.841Z,20.34
2022-09-15T12:34:25.317Z,20.30
2022-09-15T12:36:56.691Z,19.94
2022-09-15T12:39:32.937Z,20.33
2022-09-15T12:42:21.653Z,20.54
2022-09-15T12:44:55.908Z,20.64
2022-09-15T12:47:39.434Z,21.00
2022-09-15T12:50:29.016Z,21.07
2022-09-15T12:53:02.337Z,21.32
2022-09-15T12:55:36.592Z,21.45
2022-09-15T12:58:16.493Z,21.56
2022-09-15T13:01:16.649Z,21.83
2022-09-15T13:04:24.170Z,21.86
2022-09-15T13:07:37.280Z,21.74
2022-09-15T13:10:35.871Z,21.33
2022-09-15T13:13:33.411Z,20.96
2022-09-15T13:16:03.766Z,20.57
2022-09-15T13:18:35.146Z,20.44
2022-09-15T13:21:13.941Z,20.72
2022-09-15T13:23:48.317Z,21.25
2022-09-15T13:26:24.403Z,21.94
2022-09-15T13:28:59.058Z,22.52
2022-09-15T13:31:40.227Z,22.85
2022-09-15T13:35:20.731Z,23.37
2022-09-15T13:38:31.598Z,24.00
2022-09-15T13:41:40.252Z,24.79
2022-09-15T13:44:55.794Z,24.82
2022-09-15T13:47:39.331Z,24.21
2022-09-15T13:50:18.300Z,24.10
2022-09-15T13:53:09.021Z,24.19
2022-09-15T13:55:39.704Z,24.08
2022-09-15T14:01:08.703Z,24.37
2022-09-15T14:03:45.575Z,24.44
2022-09-15T14:06:18.861Z,24.41
2022-09-15T14:08:53.653Z,24.49
2022-09-15T14:11:28.725Z,24.69
2022-09-15T14:14:00.748Z,24.84
2022-09-15T14:16:37.524Z,24.78
2022-09-15T14:19:34.108Z,24.40
2022-09-15T14:22:19.253Z,23.66
2022-09-15T14:24:48.872Z,23.64
2022-09-15T14:27:25.658Z,23.49
2022-09-15T14:29:58.223Z,23.49
2022-09-15T14:32:31.562Z,23.74
2022-09-15T14:35:05.585Z,23.97
2022-09-15T14:37:35.203Z,23.98
2022-09-15T14:40:23.968Z,24.08
2022-09-15T14:42:53.269Z,24.34
2022-09-15T14:48:18.985Z,24.57
2022-09-15T14:50:59.442Z,24.71
2022-09-15T14:53:31.551Z,24.77
2022-09-15T14:56:08.477Z,24.62
2022-09-15T14:58:43.290Z,24.77
2022-09-15T15:01:18.152Z,24.41
2022-09-15T15:03:57.307Z,23.49
2022-09-15T15:06:32.827Z,22.84
2022-09-15T15:09:07.655Z,22.02
2022-09-15T15:11:39.682Z,21.87
2022-09-15T15:14:12.557Z,21.58
2022-09-15T15:16:52.858Z,21.14
2022-09-15T15:19:36.315Z,21.05
2022-09-15T15:22:17.302Z,20.97
2022-09-15T15:24:50.100Z,21.06
2022-09-15T15:27:43.833Z,20.82
2022-09-15T15:30:47.130Z,20.83
2022-09-15T15:33:25.593Z,20.83
2022-09-15T15:36:08.971Z,20.88
2022-09-15T15:38:47.201Z,20.81
2022-09-15T15:41:23.221Z,20.87
2022-09-15T15:44:08.205Z,20.85
2022-09-15T15:46:53.319Z,20.84
2022-09-15T15:49:27.501Z,20.97
2022-09-15T15:51:59.639Z,21.09
2022-09-15T15:54:29.532Z,21.19
2022-09-15T15:57:23.323Z,21.32
2022-09-15T15:59:57.652Z,21.30
2022-09-15T16:02:28.569Z,21.20
2022-09-15T16:04:57.743Z,21.28
2022-09-15T16:07:33.129Z,21.02
2022-09-15T16:10:03.665Z,21.15
2022-09-15T16:12:34.810Z,21.20
2022-09-15T16:15:13.160Z,21.23
2022-09-15T16:17:46.013Z,21.20
2022-09-15T16:20:16.991Z,21.28
2022-09-15T16:22:47.534Z,21.14
2022-09-15T16:25:19.982Z,20.99
2022-09-15T16:27:49.124Z,20.81
2022-09-15T16:30:18.397Z,20.91
2022-09-15T16:32:47.488Z,20.90
2022-09-15T16:35:28.209Z,20.79
2022-09-15T16:37:58.902Z,20.68
2022-09-15T16:40:28.371Z,20.71
2022-09-15T16:42:57.573Z,20.63
2022-09-15T16:45:36.516Z,20.42
2022-09-15T16:48:09.220Z,20.46
2022-09-15T16:50:42.657Z,20.56
2022-09-15T16:53:18.992Z,20.46
2022-09-15T16:55:49.755Z,20.40
2022-09-15T16:58:22.248Z,20.46
2022-09-15T17:00:53.764Z,20.37
2022-09-15T17:03:25.698Z,20.24
2022-09-15T17:05:57.522Z,20.18
2022-09-15T17:08:30.588Z,20.12
2022-09-15T17:11:01.956Z,20.28
2022-09-15T17:13:33.590Z,20.19
2022-09-15T17:16:04.020Z,20.21
2022-09-15T17:18:33.415Z,20.20
2022-09-15T17:21:02.558Z,20.10
2022-09-15T17:23:38.105Z,19.97
2022-09-15T17:26:12.534Z,19.95
2022-09-15T17:28:42.320Z,19.89
2022-09-15T17:31:16.685Z,19.84
2022-09-15T17:33:46.782Z,19.76
2022-09-15T17:36:16.219Z,19.73
2022-09-15T17:38:48.955Z,19.62
2022-09-15T17:41:20.677Z,19.50
2022-09-15T17:43:50.004Z,19.47
2022-09-15T17:46:19.124Z,19.48
2022-09-15T17:48:48.523Z,19.35
2022-09-15T17:51:18.498Z,19.34
2022-09-15T17:53:49.255Z,19.23
2022-09-15T17:56:18.453Z,19.26
2022-09-15T17:58:47.611Z,19.14
2022-09-15T18:01:17.506Z,18.96
2022-09-15T18:03:47.168Z,19.03
2022-09-15T18:06:16.326Z,18.75
2022-09-15T18:08:45.937Z,18.75
2022-09-15T18:11:16.835Z,18.70
2022-09-15T18:13:46.096Z,18.64
2022-09-15T18:16:16.089Z,18.60
2022-09-15T18:18:45.385Z,18.69
2022-09-15T18:21:27.009Z,18.71
2022-09-15T18:23:56.175Z,18.66
2022-09-15T18:26:27.040Z,18.60
2022-09-15T18:28:56.400Z,18.51
2022-09-15T18:31:25.583Z,18.56
2022-09-15T18:33:54.938Z,18.57
2022-09-15T18:36:24.098Z,18.55
2022-09-15T18:38:53.338Z,18.58
2022-09-15T18:41:22.743Z,18.50
2022-09-15T18:43:53.288Z,18.34
2022-09-15T18:46:22.615Z,18.35
2022-09-15T18:48:51.785Z,18.38
2022-09-15T18:51:29.088Z,18.15
2022-09-15T18:54:04.401Z,18.26
2022-09-15T18:56:33.705Z,17.98
2022-09-15T18:59:04.355Z,18.09
2022-09-15T19:01:34.827Z,17.99
2022-09-15T19:04:04.404Z,17.97
2022-09-15T19:06:33.666Z,17.98
2022-09-15T19:09:02.889Z,17.94
2022-09-15T19:11:32.202Z,17.89
2022-09-15T19:14:03.232Z,17.96
2022-09-15T19:16:53.904Z,17.87
2022-09-15T19:19:22.498Z,17.88
2022-09-15T19:21:51.754Z,17.70
2022-09-15T19:24:21.433Z,17.62
2022-09-15T19:26:50.633Z,17.68
2022-09-15T19:29:21.244Z,17.67
2022-09-15T19:31:50.510Z,17.66
2022-09-15T19:34:19.806Z,17.61
2022-09-15T19:36:49.020Z,17.63
2022-09-15T19:39:18.335Z,17.66
2022-09-15T19:41:47.560Z,17.59
2022-09-15T19:44:17.258Z,17.30
2022-09-15T19:46:48.479Z,17.61
2022-09-15T19:49:17.799Z,17.51
2022-09-15T19:51:47.180Z,17.59
2022-09-15T19:54:16.375Z,17.66
2022-09-15T19:56:45.576Z,17.53
2022-09-15T19:59:14.824Z,17.52
2022-09-15T20:01:44.467Z,17.60
2022-09-15T20:04:15.867Z,17.59
2022-09-15T20:06:45.154Z,17.60
2022-09-15T20:09:14.376Z,17.53
2022-09-15T20:11:43.694Z,17.50
2022-09-15T20:14:12.907Z,17.58
2022-09-15T20:16:42.599Z,17.53
2022-09-15T20:19:11.890Z,17.53
2022-09-15T20:21:51.343Z,17.58
2022-09-15T20:24:21.963Z,17.53
2022-09-15T20:26:51.579Z,17.32
2022-09-15T20:29:21.604Z,17.34
2022-09-15T20:31:50.771Z,17.42
2022-09-15T20:34:20.138Z,17.45
2022-09-15T20:36:50.988Z,17.43
2022-09-15T20:39:22.473Z,17.42
2022-09-15T20:41:51.878Z,17.43
2022-09-15T20:44:20.995Z,17.36
2022-09-15T20:46:50.221Z,17.38
2022-09-15T20:49:19.800Z,17.38
2022-09-15T20:51:51.745Z,17.29
2022-09-15T20:54:21.068Z,17.30
2022-09-15T20:56:50.252Z,17.31
2022-09-15T20:59:19.587Z,17.25
2022-09-15T21:01:49.140Z,17.20
2022-09-15T21:04:19.120Z,17.16
2022-09-15T21:06:50.046Z,17.16
2022-09-15T21:09:19.288Z,17.13
2022-09-15T21:11:53.277Z,17.00
2022-09-15T21:14:22.948Z,17.08
2022-09-15T21:16:52.208Z,16.85
2022-09-15T21:19:21.450Z,17.05
2022-09-15T21:21:52.055Z,16.98
2022-09-15T21:24:24.552Z,17.05
2022-09-15T21:27:11.291Z,16.90
2022-09-15T21:29:41.015Z,17.06
2022-09-15T21:32:10.233Z,16.99
2022-09-15T21:34:39.570Z,17.08
2022-09-15T21:37:10.444Z,17.01
2022-09-15T21:39:39.704Z,16.98
2022-09-15T21:42:10.286Z,16.99
2022-09-15T21:44:39.457Z,16.97
2022-09-15T21:47:09.048Z,16.93
2022-09-15T21:49:38.313Z,16.91
2022-09-15T21:52:11.452Z,16.95
2022-09-15T21:54:40.739Z,16.88
2022-09-15T21:57:10.397Z,16.75
2022-09-15T21:59:39.773Z,16.89
2022-09-15T22:02:11.744Z,16.82
2022-09-15T22:04:41.045Z,16.63
2022-09-15T22:07:11.764Z,16.70
2022-09-15T22:09:41.043Z,16.69
2022-09-15T22:12:10.710Z,16.68
2022-09-15T22:14:39.936Z,16.73
2022-09-15T22:17:09.203Z,16.68
2022-09-15T22:19:38.379Z,16.70
2022-09-15T22:22:08.269Z,16.69
2022-09-15T22:24:39.182Z,16.66
2022-09-15T22:27:08.412Z,16.71
2022-09-15T22:29:37.565Z,16.63
2022-09-15T22:32:09.536Z,16.67
2022-09-15T22:34:38.949Z,16.72
2022-09-15T22:37:08.214Z,16.65
2022-09-15T22:39:58.144Z,16.72
2022-09-15T22:42:28.574Z,16.45
2022-09-15T22:45:01.037Z,16.59
2022-09-15T22:47:30.223Z,16.61
2022-09-15T22:49:59.885Z,16.59
2022-09-15T22:52:29.089Z,16.53
2022-09-15T22:55:04.672Z,16.60
2022-09-15T22:57:37.333Z,16.51
2022-09-15T23:00:08.664Z,16.57
2022-09-15T23:02:40.561Z,16.55
2022-09-15T23:05:10.718Z,16.40
2022-09-15T23:07:40.003Z,16.47
2022-09-15T23:10:15.777Z,16.46
2022-09-15T23:12:45.399Z,16.45
2022-09-15T23:15:15.089Z,16.43
2022-09-15T23:17:44.354Z,16.33
2022-09-15T23:20:19.945Z,16.27
2022-09-15T23:22:49.078Z,16.33
2022-09-15T23:25:19.767Z,16.36
2022-09-15T23:27:48.910Z,16.31
2022-09-15T23:30:18.836Z,16.23
2022-09-15T23:32:48.027Z,16.28
2022-09-15T23:35:17.254Z,16.17
2022-09-15T23:37:46.419Z,16.09
2022-09-15T23:40:15.904Z,16.10
2022-09-15T23:42:46.579Z,16.08
2022-09-15T23:45:15.919Z,15.99
2022-09-15T23:47:45.116Z,15.98
2022-09-15T23:50:14.254Z,15.96
2022-09-15T23:52:43.361Z,15.96
2022-09-15T23:55:12.812Z,16.01
2022-09-15T23:57:42.073Z,15.99
